Time;durP1;ratioP1;P1;durP2;ratioP2;P2;SDS_P1;SDS_P2;PMS_P1;PMS_P2;Temp;Humidity;BMP_temperature;BMP_pressure;BME280_temperature;BME280_humidity;BME280_pressure;Samples;Min_cycle;Max_cycle;Signal;HPM_P1;HPM_P2
2023/01/03 00:39:38;;;;;;;3.00;1.40;;;13.40;99.90;;;;;;4592454;19;20017;-28
2023/01/03 00:41:12;;;;;;;3.72;1.58;;;13.40;99.90;;;;;;4590003;19;20361;-29
2023/01/03 00:44:34;;;;;;;3.20;1.45;;;13.40;99.90;;;;;;4589952;19;20009;-33
2023/01/03 00:46:06;;;;;;;;;;;13.40;99.90;;;;;;4591663;19;20082;-28
2023/01/03 00:47:39;;;;;;;2.38;1.48;;;13.40;99.90;;;;;;4590370;19;19926;-28
2023/01/03 00:49:10;;;;;;;2.55;1.58;;;13.40;99.90;;;;;;4589809;19;20015;-30
2023/01/03 00:50:41;;;;;;;3.13;1.67;;;13.40;99.90;;;;;;4590329;19;20350;-30
2023/01/03 00:52:12;;;;;;;2.38;1.40;;;13.40;99.90;;;;;;4590703;19;20006;-28
2023/01/03 00:53:48;;;;;;;3.53;1.45;;;13.40;99.90;;;;;;4590527;19;20034;-30
2023/01/03 00:55:19;;;;;;;3.78;2.70;;;13.40;99.90;;;;;;4590642;19;20015;-34
2023/01/03 00:56:52;;;;;;;4.22;2.90;;;13.40;99.90;;;;;;4591057;19;20034;-38
2023/01/03 00:58:23;;;;;;;10.35;6.55;;;13.40;99.90;;;;;;4589467;19;20015;-32
2023/01/03 00:59:55;;;;;;;10.35;5.97;;;13.40;99.90;;;;;;4590036;19;20085;-32
2023/01/03 01:01:33;;;;;;;9.15;5.10;;;13.40;99.90;;;;;;4589361;19;20019;-29
2023/01/03 01:03:04;;;;;;;12.50;6.05;;;13.40;99.90;;;;;;4589214;19;20014;-28
2023/01/03 01:04:37;;;;;;;18.70;8.85;;;13.40;99.90;;;;;;4589993;19;20014;-30
2023/01/03 01:06:24;;;;;;;18.25;8.75;;;13.40;99.90;;;;;;4589282;19;20015;-28
2023/01/03 01:07:56;;;;;;;10.25;5.72;;;13.40;99.90;;;;;;4590761;19;20010;-28
2023/01/03 01:09:32;;;;;;;8.68;4.03;;;13.40;99.90;;;;;;4590535;19;20017;-30
2023/01/03 01:11:03;;;;;;;7.93;4.38;;;13.40;99.90;;;;;;4589310;19;20010;-30
2023/01/03 01:12:34;;;;;;;11.57;6.10;;;13.40;99.90;;;;;;4589864;19;20061;-28
2023/01/03 01:14:21;;;;;;;11.15;5.50;;;13.40;99.90;;;;;;4589028;19;20102;-30
2023/01/03 01:15:52;;;;;;;8.50;4.05;;;13.40;99.90;;;;;;4589839;19;20011;-29
2023/01/03 01:17:26;;;;;;;5.70;2.70;;;13.40;99.90;;;;;;4590216;19;20034;-33
2023/01/03 01:18:59;;;;;;;4.88;2.40;;;13.30;99.90;;;;;;4589962;19;20414;-28
2023/01/03 01:20:31;;;;;;;5.85;2.83;;;13.30;99.90;;;;;;4588796;19;20021;-30
2023/01/03 01:22:03;;;;;;;6.10;2.90;;;13.30;99.90;;;;;;4589954;19;20021;-29
2023/01/03 01:23:36;;;;;;;4.15;2.40;;;13.40;99.90;;;;;;4589234;19;20019;-28
2023/01/03 01:25:08;;;;;;;3.83;2.15;;;13.40;99.90;;;;;;4589626;19;20014;-30
2023/01/03 01:26:40;;;;;;;3.92;1.98;;;13.30;99.90;;;;;;4590071;19;20019;-31
2023/01/03 01:28:11;;;;;;;4.88;2.35;;;13.30;99.90;;;;;;4590493;19;20015;-28
2023/01/03 01:29:44;;;;;;;3.63;2.05;;;13.40;99.90;;;;;;4589519;19;20348;-35
2023/01/03 01:31:17;;;;;;;2.88;1.70;;;13.40;99.90;;;;;;4589655;19;20472;-29
2023/01/03 01:32:49;;;;;;;3.97;2.17;;;13.40;99.90;;;;;;4588635;19;20369;-30
2023/01/03 01:34:22;;;;;;;3.23;1.67;;;13.30;99.90;;;;;;4589763;19;20011;-33
2023/01/03 01:35:54;;;;;;;2.85;1.60;;;13.30;99.90;;;;;;4589632;19;20011;-33
2023/01/03 01:37:25;;;;;;;2.13;1.17;;;13.30;99.90;;;;;;4588562;19;20022;-31
2023/01/03 05:13:54;;;;;;;3.78;1.73;;;13.60;99.90;;;;;;4587818;19;20019;-29
2023/01/03 05:15:27;;;;;;;3.17;1.02;;;13.70;99.90;;;;;;4591954;19;20464;-28
2023/01/03 05:16:58;;;;;;;3.25;1.60;;;13.70;99.90;;;;;;4589586;19;20519;-30
2023/01/03 05:18:30;;;;;;;3.30;1.70;;;13.70;99.90;;;;;;4590981;19;20015;-28
2023/01/03 05:25:50;;;;;;;3.95;1.30;;;14.10;99.90;;;;;;4589152;19;20017;-32
2023/01/03 05:27:21;;;;;;;2.67;1.40;;;14.00;99.90;;;;;;4587675;19;20038;-30
2023/01/03 05:28:52;;;;;;;4.65;2.30;;;13.80;99.90;;;;;;4590512;19;20014;-28
2023/01/03 05:30:24;;;;;;;4.40;2.30;;;13.80;99.90;;;;;;4589494;19;20007;-32
2023/01/03 05:31:57;;;;;;;3.38;1.20;;;13.70;99.90;;;;;;4588139;19;20014;-30
2023/01/03 05:33:28;;;;;;;2.92;1.20;;;13.70;99.90;;;;;;4588898;19;20022;-29
2023/01/03 05:34:59;;;;;;;2.60;1.40;;;13.70;99.90;;;;;;4589189;19;20030;-30
2023/01/03 05:36:31;;;;;;;6.13;2.05;;;13.60;99.90;;;;;;4590462;19;20018;-29
2023/01/03 05:38:02;;;;;;;2.53;1.25;;;13.60;99.90;;;;;;4589203;19;20113;-32
2023/01/03 05:39:33;;;;;;;2.60;1.50;;;13.60;99.90;;;;;;4591372;19;20103;-30
2023/01/03 05:41:04;;;;;;;2.13;1.30;;;13.60;99.90;;;;;;4589344;19;20383;-28
2023/01/03 05:42:35;;;;;;;2.25;1.08;;;13.60;99.90;;;;;;4589444;19;20039;-28
2023/01/03 05:44:07;;;;;;;2.25;1.35;;;13.60;99.90;;;;;;4590969;19;20471;-30
2023/01/03 05:45:38;;;;;;;3.00;1.42;;;13.60;99.90;;;;;;4589755;19;20015;-31
2023/01/03 05:47:09;;;;;;;2.83;1.30;;;13.60;99.90;;;;;;4587857;19;20014;-29
2023/01/03 05:50:31;;;;;;;3.30;1.42;;;13.50;99.90;;;;;;4590686;19;20042;-30
2023/01/03 05:52:02;;;;;;;3.70;1.90;;;13.60;99.90;;;;;;4589457;19;20021;-31
2023/01/03 05:53:34;;;;;;;2.70;1.30;;;13.50;99.90;;;;;;4589552;19;20460;-29
2023/01/03 05:55:05;;;;;;;3.45;1.30;;;13.50;99.90;;;;;;4587735;19;20014;-29
2023/01/03 05:56:36;;;;;;;4.65;1.80;;;13.50;99.90;;;;;;4590737;19;20805;-30
2023/01/03 05:58:09;;;;;;;2.47;1.60;;;13.50;99.90;;;;;;4589723;19;20015;-32
2023/01/03 05:59:40;;;;;;;3.33;1.80;;;13.50;99.90;;;;;;4589828;19;20037;-28
2023/01/03 06:01:13;;;;;;;3.97;2.00;;;13.50;99.90;;;;;;4588637;19;20029;-30
2023/01/03 06:02:44;;;;;;;3.55;1.63;;;13.40;99.90;;;;;;4590279;19;20491;-30
2023/01/03 06:04:15;;;;;;;3.15;1.90;;;13.40;99.90;;;;;;4589805;19;20011;-29
2023/01/03 06:05:46;;;;;;;4.20;1.92;;;13.40;99.90;;;;;;4587585;19;20372;-30
2023/01/03 06:07:17;;;;;;;3.20;1.95;;;13.40;99.90;;;;;;4590884;19;20472;-32
2023/01/03 06:08:48;;;;;;;3.08;1.88;;;13.40;99.90;;;;;;4588573;19;20379;-30
2023/01/03 06:10:20;;;;;;;3.95;1.75;;;13.40;99.90;;;;;;4589716;19;20468;-28
2023/01/03 06:11:51;;;;;;;4.82;2.22;;;13.40;99.90;;;;;;4590222;19;20021;-29
2023/01/03 06:13:23;;;;;;;3.83;1.90;;;13.40;99.90;;;;;;4588749;19;20014;-29
2023/01/03 06:14:55;;;;;;;4.22;1.90;;;13.40;99.90;;;;;;4588402;19;20026;-28
2023/01/03 06:18:17;;;;;;;2.65;1.52;;;13.40;99.90;;;;;;4589766;19;20014;-29
2023/01/03 06:19:48;;;;;;;3.58;1.75;;;13.40;99.90;;;;;;4589358;19;20062;-28
2023/01/03 06:21:20;;;;;;;4.72;1.67;;;13.40;99.90;;;;;;4589035;19;20026;-30
2023/01/03 06:22:52;;;;;;;2.10;1.33;;;13.30;99.90;;;;;;4589237;19;20081;-30
2023/01/03 06:24:24;;;;;;;3.50;1.45;;;13.40;99.90;;;;;;4589611;19;20014;-31
2023/01/03 06:25:55;;;;;;;3.58;1.23;;;13.40;99.90;;;;;;4589429;19;20329;-29
2023/01/03 06:27:28;;;;;;;3.33;1.60;;;13.40;99.90;;;;;;4589548;19;20081;-28
2023/01/03 06:29:00;;;;;;;3.20;1.58;;;13.40;99.90;;;;;;4589441;19;20014;-29
2023/01/03 06:30:31;;;;;;;3.00;1.63;;;13.40;99.90;;;;;;4587286;19;20023;-28
2023/01/03 06:32:02;;;;;;;3.72;1.60;;;13.30;99.90;;;;;;4589518;19;20018;-27
2023/01/03 06:33:33;;;;;;;4.75;2.05;;;13.40;99.90;;;;;;4588571;19;20022;-30
2023/01/03 06:35:05;;;;;;;3.58;2.03;;;13.30;99.90;;;;;;4589480;19;20014;-29
2023/01/03 06:36:36;;;;;;;5.10;2.20;;;13.30;99.90;;;;;;4592655;19;20032;-30
2023/01/03 06:38:08;;;;;;;4.20;2.03;;;13.30;99.90;;;;;;4593359;19;20014;-31
2023/01/03 06:39:39;;;;;;;;;;;13.40;99.90;;;;;;4594006;19;20014;-29
2023/01/03 06:41:11;;;;;;;3.92;2.05;;;13.40;99.90;;;;;;4592504;19;20302;-29
2023/01/03 06:42:42;;;;;;;5.35;2.20;;;13.30;99.90;;;;;;4593322;19;20365;-30
2023/01/03 06:44:14;;;;;;;3.17;1.73;;;13.30;99.90;;;;;;4593909;19;20014;-31
2023/01/03 06:53:15;;;;;;;2.50;1.45;;;13.40;99.90;;;;;;4593896;19;20014;-29
2023/01/03 06:54:46;;;;;;;4.93;1.77;;;13.40;99.90;;;;;;4593798;19;20021;-27
2023/01/03 06:56:17;;;;;;;2.67;1.35;;;13.40;99.90;;;;;;4592790;19;20011;-29
2023/01/03 06:57:49;;;;;;;;;;;13.60;99.90;;;;;;4593507;19;20006;-29
2023/01/03 06:59:21;;;;;;;3.63;1.63;;;13.60;99.90;;;;;;4593878;19;19923;-29
2023/01/03 07:00:52;;;;;;;2.75;1.48;;;13.50;99.90;;;;;;4591727;19;20022;-29
2023/01/03 07:02:23;;;;;;;2.35;1.48;;;13.50;99.90;;;;;;4592561;19;20039;-29
2023/01/03 07:03:55;;;;;;;2.97;1.80;;;13.40;99.90;;;;;;4593523;19;20006;-31
2023/01/03 07:05:26;;;;;;;5.32;2.25;;;13.40;99.90;;;;;;4594300;19;20015;-29
2023/01/03 07:06:57;;;;;;;5.68;2.60;;;13.40;99.90;;;;;;4592547;19;20014;-30
2023/01/03 07:08:29;;;;;;;6.13;2.40;;;13.30;99.90;;;;;;4593099;19;20499;-30
2023/01/03 07:10:00;;;;;;;4.03;1.67;;;13.30;99.90;;;;;;4594164;19;20002;-29
2023/01/03 07:11:34;;;;;;;3.75;2.45;;;13.30;99.90;;;;;;4593907;19;20018;-29
2023/01/03 07:14:56;;;;;;;7.57;3.07;;;13.30;99.90;;;;;;4592510;19;20010;-28
2023/01/03 07:30:40;;;;;;;7.63;4.38;;;13.20;99.90;;;;;;4593601;19;20421;-30
2023/01/03 07:32:12;;;;;;;5.50;3.23;;;13.20;99.90;;;;;;4592976;19;20023;-28
2023/01/03 07:33:44;;;;;;;9.65;7.07;;;13.10;99.90;;;;;;4591624;19;20007;-30
2023/01/03 07:35:16;;;;;;;5.57;3.10;;;13.10;99.90;;;;;;4591341;19;20014;-29
2023/01/03 07:36:48;;;;;;;6.78;4.85;;;13.10;99.90;;;;;;4591743;19;20031;-30
2023/01/03 07:38:19;;;;;;;10.40;7.97;;;13.10;99.90;;;;;;4592357;19;20092;-28
2023/01/03 07:39:51;;;;;;;10.23;7.85;;;13.10;99.90;;;;;;4592400;19;20018;-29
2023/01/03 07:43:35;;;;;;;7.70;4.63;;;13.10;99.90;;;;;;4589807;19;20005;-29
2023/01/03 07:45:06;;;;;;;8.63;6.13;;;13.10;99.90;;;;;;4592879;19;20456;-32
2023/01/03 07:46:38;;;;;;;11.60;7.40;;;13.10;99.90;;;;;;4591341;19;20037;-29
2023/01/03 07:48:10;;;;;;;7.78;6.63;;;13.10;99.90;;;;;;4592100;19;20044;-31
2023/01/03 07:49:41;;;;;;;5.82;4.90;;;13.10;99.90;;;;;;4592351;19;20031;-30
2023/01/03 07:51:14;;;;;;;6.40;4.22;;;13.20;99.90;;;;;;4592447;19;20015;-33
2023/01/03 07:52:45;;;;;;;4.25;2.88;;;13.20;99.90;;;;;;4592321;19;20014;-30
2023/01/03 07:54:17;;;;;;;6.88;2.80;;;13.20;99.90;;;;;;4591627;19;20496;-27
2023/01/03 07:55:48;;;;;;;;;;;13.20;99.90;;;;;;4592937;19;20448;-31
2023/01/03 07:57:20;;;;;;;3.57;2.00;;;13.20;99.90;;;;;;4592446;19;19910;-29
2023/01/03 07:58:51;;;;;;;4.93;2.33;;;13.20;99.90;;;;;;4591054;19;20011;-29
2023/01/03 08:00:22;;;;;;;;;;;13.20;99.90;;;;;;4592428;19;20033;-27
2023/01/03 08:01:53;;;;;;;4.87;2.17;;;13.20;99.90;;;;;;4591321;19;19911;-34
2023/01/03 08:03:25;;;;;;;6.07;2.15;;;13.20;99.90;;;;;;4592342;19;20015;-32
2023/01/03 08:04:56;;;;;;;4.65;2.08;;;13.20;99.90;;;;;;4591951;19;20398;-30
2023/01/03 08:06:28;;;;;;;5.15;1.92;;;13.20;99.90;;;;;;4590677;19;20015;-28
2023/01/03 08:07:59;;;;;;;4.75;1.83;;;13.20;99.90;;;;;;4591278;19;20014;-32
2023/01/03 08:13:19;;;;;;;4.60;2.45;;;13.20;99.90;;;;;;4591861;19;20030;-28
2023/01/03 08:14:50;;;;;;;4.03;2.03;;;13.20;99.90;;;;;;4588612;19;20027;-29
2023/01/03 08:16:21;;;;;;;5.43;2.20;;;13.10;99.90;;;;;;4591530;19;20014;-28
2023/01/03 08:17:52;;;;;;;5.35;2.30;;;13.10;99.90;;;;;;4591575;19;20015;-28
2023/01/03 08:19:23;;;;;;;4.25;2.10;;;13.10;99.90;;;;;;4592007;19;20014;-31
2023/01/03 08:20:56;;;;;;;5.95;2.92;;;13.10;99.90;;;;;;4591537;19;20046;-29
2023/01/03 08:22:28;;;;;;;4.73;2.77;;;13.20;99.90;;;;;;4590411;19;20014;-29
2023/01/03 08:23:59;;;;;;;4.30;2.08;;;13.20;99.90;;;;;;4590445;19;20031;-31
2023/01/03 08:25:31;;;;;;;5.63;2.53;;;13.10;99.90;;;;;;4591136;19;20010;-29
2023/01/03 08:27:03;;;;;;;6.57;2.83;;;13.10;99.90;;;;;;4591433;19;20010;-30
2023/01/03 08:28:35;;;;;;;5.55;2.22;;;13.20;99.90;;;;;;4589943;19;20601;-28
2023/01/03 08:30:06;;;;;;;;;;;13.20;99.90;;;;;;4592341;19;20019;-31
2023/01/03 08:38:44;;;;;;;6.05;3.00;;;13.10;99.90;;;;;;4589491;19;19999;-28
2023/01/03 08:40:16;;;;;;;5.85;2.67;;;13.20;99.90;;;;;;4590297;19;20019;-28
2023/01/03 08:41:52;;;;;;;5.20;2.65;;;13.20;99.90;;;;;;4590119;19;20009;-29
2023/01/03 08:43:23;;;;;;;5.75;3.00;;;13.20;99.90;;;;;;4590426;19;20390;-28
2023/01/03 08:45:01;;;;;;;5.05;2.67;;;13.20;99.90;;;;;;4590192;19;20349;-29
2023/01/03 08:46:33;;;;;;;8.52;3.35;;;13.20;99.90;;;;;;4590069;19;20010;-29
2023/01/03 08:48:05;;;;;;;7.35;2.97;;;13.20;99.90;;;;;;4591026;19;20010;-28
2023/01/03 08:49:37;;;;;;;5.40;2.75;;;13.10;99.90;;;;;;4591024;19;20014;-29
2023/01/03 08:51:08;;;;;;;;;;;13.10;99.90;;;;;;4590900;19;20084;-31
2023/01/03 08:52:39;;;;;;;8.85;4.05;;;13.20;99.90;;;;;;4590623;19;20330;-30
2023/01/03 08:54:11;;;;;;;6.28;2.63;;;13.20;99.90;;;;;;4590668;19;20018;-29
2023/01/03 08:55:43;;;;;;;5.47;2.45;;;13.20;99.90;;;;;;4591506;19;20035;-30
2023/01/03 08:57:14;;;;;;;;;;;13.20;99.90;;;;;;4591963;19;20015;-28
2023/01/03 08:58:45;;;;;;;7.53;5.28;;;13.20;99.90;;;;;;4589718;19;19915;-30
2023/01/03 09:00:17;;;;;;;5.90;3.35;;;13.20;99.90;;;;;;4590248;19;20018;-29
2023/01/03 09:01:48;;;;;;;4.57;3.10;;;13.20;99.90;;;;;;4589569;19;20011;-29
2023/01/03 09:03:20;;;;;;;4.60;2.88;;;13.20;99.90;;;;;;4591138;19;20014;-29
2023/01/03 09:04:51;;;;;;;5.75;3.00;;;13.20;99.90;;;;;;4590933;19;20052;-28
2023/01/03 09:06:22;;;;;;;8.68;3.67;;;13.30;99.90;;;;;;4590926;19;20006;-28
2023/01/03 09:07:54;;;;;;;38.13;18.08;;;13.30;99.90;;;;;;4590759;19;20021;-29
2023/01/03 09:09:25;;;;;;;11.23;5.18;;;13.30;99.90;;;;;;4589467;19;20046;-28
2023/01/03 09:10:56;;;;;;;8.50;4.70;;;13.30;99.90;;;;;;4590744;19;20502;-29
2023/01/03 09:12:28;;;;;;;8.95;3.40;;;13.30;99.90;;;;;;4591228;19;20057;-31
2023/01/03 09:13:59;;;;;;;8.45;3.40;;;13.30;99.90;;;;;;4590025;19;20014;-29
2023/01/03 09:15:31;;;;;;;8.73;3.10;;;13.30;99.90;;;;;;4589690;19;20006;-30
2023/01/03 09:17:02;;;;;;;6.80;3.80;;;13.30;99.90;;;;;;4589962;19;20006;-29
2023/01/03 09:18:34;;;;;;;11.27;6.15;;;13.30;99.90;;;;;;4589317;19;20496;-28
2023/01/03 09:20:07;;;;;;;10.88;5.43;;;13.30;99.90;;;;;;4590478;19;20007;-29
2023/01/03 09:21:39;;;;;;;8.27;4.03;;;13.30;99.90;;;;;;4588712;19;20078;-29
2023/01/03 09:23:10;;;;;;;8.15;6.07;;;13.30;99.90;;;;;;4590718;19;20007;-31
2023/01/03 09:24:41;;;;;;;6.82;4.10;;;13.30;99.90;;;;;;4589108;19;20019;-30
2023/01/03 09:26:13;;;;;;;;;;;13.30;99.90;;;;;;4590188;19;20017;-29
2023/01/03 09:27:47;;;;;;;11.60;5.90;;;13.40;99.90;;;;;;4590515;19;19907;-31
2023/01/03 09:29:18;;;;;;;5.40;3.10;;;13.40;99.90;;;;;;4590693;19;20353;-31
2023/01/03 09:30:50;;;;;;;7.10;3.33;;;13.40;99.90;;;;;;4588552;19;20090;-28
2023/01/03 09:32:21;;;;;;;12.80;6.80;;;13.40;99.90;;;;;;4589977;19;20011;-29
2023/01/03 09:33:53;;;;;;;;;;;13.40;99.90;;;;;;4590975;19;20070;-29
2023/01/03 09:35:24;;;;;;;6.07;2.67;;;13.40;99.90;;;;;;4590245;19;19942;-33
2023/01/03 09:36:55;;;;;;;5.80;2.63;;;13.30;99.90;;;;;;4589292;19;20010;-29
2023/01/03 09:38:26;;;;;;;5.50;2.50;;;13.40;99.90;;;;;;4590125;19;20010;-30
2023/01/03 09:41:43;;;;;;;7.60;3.13;;;13.30;99.90;;;;;;4588265;19;20007;-29
2023/01/03 09:43:18;;;;;;;7.78;4.25;;;13.40;99.90;;;;;;4588896;19;20471;-32
2023/01/03 09:44:50;;;;;;;4.93;3.10;;;13.40;99.90;;;;;;4589386;19;20013;-29
2023/01/03 09:46:23;;;;;;;7.18;3.30;;;13.40;99.90;;;;;;4590168;19;20010;-29
2023/01/03 09:47:54;;;;;;;5.43;2.67;;;13.30;99.90;;;;;;4590727;19;20010;-30
2023/01/03 09:49:27;;;;;;;6.10;2.67;;;13.30;99.90;;;;;;4587774;19;20018;-32
2023/01/03 09:50:58;;;;;;;8.23;3.15;;;13.30;99.90;;;;;;4588111;19;20472;-29
2023/01/03 10:04:08;;;;;;;5.70;2.00;;;13.20;99.90;;;;;;4587673;19;20031;-30
2023/01/03 10:05:51;;;;;;;6.25;2.40;;;13.20;99.90;;;;;;4587741;19;20010;-29
2023/01/03 10:07:59;;;;;;;5.00;2.50;;;13.20;99.90;;;;;;4587581;19;20010;-28
2023/01/03 10:09:42;;;;;;;4.10;2.10;;;13.20;99.90;;;;;;4587580;19;20014;-31
2023/01/03 10:11:47;;;;;;;5.75;2.05;;;13.20;99.90;;;;;;4590093;19;20014;-30
2023/01/03 10:13:33;;;;;;;5.63;2.20;;;13.20;99.90;;;;;;4592233;19;20010;-29
2023/01/03 10:15:17;;;;;;;5.45;2.45;;;13.20;99.90;;;;;;4592379;19;20007;-28
2023/01/03 10:17:22;;;;;;;10.07;2.77;;;13.20;99.90;;;;;;4591973;19;20018;-30
2023/01/03 10:19:01;;;;;;;5.20;2.22;;;13.20;99.90;;;;;;4592204;19;20014;-29
2023/01/03 10:20:40;;;;;;;;;;;13.30;99.90;;;;;;4592856;19;20014;-29
2023/01/03 10:22:12;;;;;;;4.90;2.30;;;13.30;99.90;;;;;;4592572;19;19925;-30
2023/01/03 10:23:46;;;;;;;3.97;1.40;;;13.20;99.90;;;;;;4591736;19;20513;-28
2023/01/03 10:25:22;;;;;;;6.17;2.57;;;13.10;99.90;;;;;;4592368;19;20010;-30
2023/01/03 10:27:06;;;;;;;4.22;1.92;;;13.10;99.90;;;;;;4591816;19;20019;-28
2023/01/03 10:39:30;;;;;;;3.60;1.80;;;13.40;99.90;;;;;;4594099;19;20311;-31
2023/01/03 10:41:02;;;;;;;6.85;2.65;;;13.40;99.90;;;;;;4591428;19;20018;-31
2023/01/03 10:48:00;;;;;;;4.75;1.77;;;13.50;99.90;;;;;;4594324;19;20003;-29
2023/01/03 10:49:32;;;;;;;3.92;2.00;;;13.50;99.90;;;;;;4593592;19;20014;-29
2023/01/03 10:51:34;;;;;;;5.50;2.20;;;13.40;99.90;;;;;;4592600;19;21050;-31
2023/01/03 10:53:20;;;;;;;6.33;2.70;;;13.40;99.90;;;;;;4592701;19;20009;-29
2023/01/03 10:55:01;;;;;;;5.55;2.30;;;13.50;99.90;;;;;;4592852;19;20390;-31
2023/01/03 10:56:32;;;;;;;5.05;1.90;;;13.50;99.90;;;;;;4593410;19;20014;-30
2023/01/03 10:58:33;;;;;;;4.80;1.98;;;13.50;99.90;;;;;;4592764;19;20010;-32
2023/01/03 11:00:31;;;;;;;6.00;2.47;;;13.50;99.90;;;;;;4592449;19;20014;-30
2023/01/03 11:02:07;;;;;;;6.68;2.50;;;13.40;99.90;;;;;;4590564;19;20023;-28
2023/01/03 11:03:43;;;;;;;4.70;2.10;;;13.40;99.90;;;;;;4593492;19;20015;-31
2023/01/03 11:05:32;;;;;;;4.47;2.15;;;13.40;99.90;;;;;;4593581;19;20043;-28
2023/01/03 11:07:11;;;;;;;5.70;1.90;;;13.50;99.90;;;;;;4593599;19;20019;-29
2023/01/03 11:08:48;;;;;;;4.53;1.80;;;13.40;99.90;;;;;;4593405;19;20027;-29
2023/01/03 11:10:20;;;;;;;4.13;1.90;;;13.40;99.90;;;;;;4590765;19;20031;-33
2023/01/03 11:11:54;;;;;;;3.03;1.75;;;13.40;99.90;;;;;;4591386;19;20069;-30
2023/01/03 11:13:38;;;;;;;4.85;1.40;;;13.30;99.90;;;;;;4591206;19;20019;-30
2023/01/03 11:15:30;;;;;;;3.67;1.38;;;13.30;99.90;;;;;;4591019;19;20472;-30
2023/01/03 11:17:03;;;;;;;5.18;1.80;;;13.40;99.90;;;;;;4591018;19;20391;-31
2023/01/03 11:18:34;;;;;;;3.45;1.63;;;13.30;99.90;;;;;;4591074;19;20006;-30
2023/01/03 11:20:18;;;;;;;4.07;1.50;;;13.20;99.90;;;;;;4590913;19;20354;-30
2023/01/03 11:22:22;;;;;;;7.50;1.93;;;13.20;99.90;;;;;;4588655;19;20027;-31
2023/01/03 11:23:55;;;;;;;5.43;1.67;;;13.20;99.90;;;;;;4591524;19;20023;-29
2023/01/03 11:25:55;;;;;;;4.40;1.93;;;13.20;99.90;;;;;;4590539;19;20019;-30
2023/01/03 11:27:50;;;;;;;19.75;10.20;;;13.30;99.90;;;;;;4590939;19;20021;-29
2023/01/03 11:29:30;;;;;;;12.87;6.07;;;13.30;99.90;;;;;;4590932;19;20017;-31
2023/01/03 11:31:23;;;;;;;11.00;6.03;;;13.30;99.90;;;;;;4589280;19;20022;-29
2023/01/03 11:32:57;;;;;;;;;;;13.30;99.90;;;;;;4591636;19;20020;-31
2023/01/03 11:34:55;;;;;;;10.83;6.63;;;13.30;99.90;;;;;;4591075;19;19907;-29
2023/01/03 11:36:51;;;;;;;4.80;2.83;;;13.30;99.90;;;;;;4590417;19;20367;-29
2023/01/03 11:38:49;;;;;;;7.82;1.92;;;13.30;99.90;;;;;;4590651;19;20017;-32
2023/01/03 11:40:44;;;;;;;10.10;5.47;;;13.30;99.90;;;;;;4591409;19;19995;-31
2023/01/03 11:42:32;;;;;;;5.93;2.97;;;13.30;99.90;;;;;;4591538;19;20029;-31
2023/01/03 11:44:21;;;;;;;10.35;5.00;;;13.30;99.90;;;;;;4592676;19;20011;-29
2023/01/03 11:46:00;;;;;;;6.57;4.15;;;13.30;99.90;;;;;;4592647;19;20006;-29
2023/01/03 11:47:45;;;;;;;5.47;2.50;;;13.20;99.90;;;;;;4592705;19;20013;-30
2023/01/03 11:51:28;;;;;;;7.85;2.40;;;13.20;99.90;;;;;;4591199;19;20019;-34
2023/01/03 11:53:03;;;;;;;5.53;2.63;;;13.20;99.90;;;;;;4592254;19;20357;-29
2023/01/03 11:55:11;;;;;;;6.10;2.10;;;13.20;99.90;;;;;;4590707;19;20010;-32
2023/01/03 11:56:43;;;;;;;5.30;2.47;;;13.20;99.90;;;;;;4592407;19;20011;-29
2023/01/03 11:58:21;;;;;;;6.97;2.30;;;13.20;99.90;;;;;;4591082;19;20121;-31
2023/01/03 12:00:21;;;;;;;5.80;2.70;;;13.20;99.90;;;;;;4592045;19;20014;-29
2023/01/03 12:02:29;;;;;;;6.17;2.03;;;13.20;99.90;;;;;;4591826;19;20473;-31
2023/01/03 12:04:41;;;;;;;6.68;2.28;;;13.20;99.90;;;;;;4589353;19;20011;-32
2023/01/03 12:06:30;;;;;;;5.17;2.77;;;13.20;99.90;;;;;;4590020;19;20061;-29
2023/01/03 12:08:02;;;;;;;6.77;2.30;;;13.20;99.90;;;;;;4589954;19;20018;-29
2023/01/03 12:09:39;;;;;;;4.82;2.20;;;13.20;99.90;;;;;;4589667;19;20014;-30
2023/01/03 12:11:44;;;;;;;4.50;1.95;;;13.20;99.90;;;;;;4589332;19;20368;-33
2023/01/03 12:14:03;;;;;;;4.40;1.52;;;13.20;99.90;;;;;;4589971;19;20497;-31
2023/01/03 12:15:41;;;;;;;3.90;1.50;;;13.10;99.90;;;;;;4589144;19;20014;-31
2023/01/03 12:17:22;;;;;;;4.03;1.90;;;13.10;99.90;;;;;;4589729;19;20014;-30
2023/01/03 12:18:57;;;;;;;4.40;1.97;;;13.20;99.90;;;;;;4591163;19;20010;-29
2023/01/03 12:20:37;;;;;;;7.10;2.47;;;13.20;99.90;;;;;;4589382;19;20097;-31
2023/01/03 12:22:21;;;;;;;5.50;2.42;;;13.20;99.90;;;;;;4588907;19;20022;-31
2023/01/03 12:23:57;;;;;;;6.45;2.10;;;13.20;99.90;;;;;;4589801;19;20015;-29
2023/01/03 12:25:31;;;;;;;6.93;2.63;;;13.20;99.90;;;;;;4589839;19;20552;-30
2023/01/03 12:27:16;;;;;;;4.95;2.33;;;13.20;99.90;;;;;;4589961;19;20010;-30
2023/01/03 12:28:53;;;;;;;6.10;2.38;;;13.20;99.90;;;;;;4589883;19;20017;-28
2023/01/03 12:30:42;;;;;;;4.65;1.85;;;13.20;99.90;;;;;;4589141;19;20019;-28
2023/01/03 12:32:15;;;;;;;5.95;2.15;;;13.10;99.90;;;;;;4589564;19;20025;-31
2023/01/03 12:34:08;;;;;;;5.82;1.90;;;13.10;99.90;;;;;;4587490;19;20014;-33
2023/01/03 12:35:55;;;;;;;6.90;2.03;;;13.20;99.90;;;;;;4589637;19;20027;-30
2023/01/03 12:37:29;;;;;;;4.82;2.10;;;13.10;99.90;;;;;;4589412;19;20034;-31
2023/01/03 12:39:48;;;;;;;5.37;2.03;;;13.20;99.90;;;;;;4589954;19;20013;-31
2023/01/03 12:42:02;;;;;;;5.27;2.10;;;13.20;99.90;;;;;;4587664;19;20494;-31
2023/01/03 12:43:45;;;;;;;5.50;2.40;;;13.20;99.90;;;;;;4589144;19;20103;-29
2023/01/03 12:45:57;;;;;;;5.43;2.40;;;13.20;99.90;;;;;;4589644;19;20011;-29
2023/01/03 12:47:34;;;;;;;8.73;2.53;;;13.20;99.90;;;;;;4588808;19;20480;-31
2023/01/03 12:49:07;;;;;;;7.40;3.23;;;13.10;99.90;;;;;;4589067;19;20017;-30
2023/01/03 13:24:44;;;;;;;6.17;3.50;;;13.10;99.90;;;;;;4589300;19;20066;-31
2023/01/03 13:26:20;;;;;;;6.43;2.67;;;13.20;99.90;;;;;;4589569;19;20516;-32
2023/01/03 13:27:53;;;;;;;5.55;2.33;;;13.20;99.90;;;;;;4590335;19;20369;-29
2023/01/03 13:29:33;;;;;;;6.53;2.08;;;13.20;99.90;;;;;;4589520;19;20021;-29
2023/01/03 13:31:35;;;;;;;5.37;1.97;;;13.30;99.90;;;;;;4590119;19;20098;-31
2023/01/03 13:33:15;;;;;;;4.97;2.37;;;13.30;99.90;;;;;;4590849;19;20010;-29
2023/01/03 13:34:58;;;;;;;5.65;3.08;;;13.30;99.90;;;;;;4590382;19;20010;-30
2023/01/03 13:36:51;;;;;;;16.73;9.37;;;13.30;99.90;;;;;;4589383;19;20018;-32
2023/01/03 13:38:25;;;;;;;16.57;9.70;;;13.30;99.90;;;;;;4588797;19;20017;-31
2023/01/03 13:40:02;;;;;;;11.82;5.80;;;13.30;99.90;;;;;;4590911;19;20014;-32
2023/01/03 13:41:40;;;;;;;11.43;6.30;;;13.40;99.90;;;;;;4588173;19;20047;-29
2023/01/03 13:43:21;;;;;;;8.20;4.53;;;13.50;99.90;;;;;;4589937;19;20007;-30
2023/01/03 13:45:14;;;;;;;4.93;2.87;;;13.10;99.90;;;;;;4590126;19;20041;-31
2023/01/03 13:46:46;;;;;;;7.53;4.50;;;11.70;99.90;;;;;;4587046;19;20021;-28
2023/01/03 13:48:57;;;;;;;8.00;4.10;;;11.10;99.90;;;;;;4587991;19;20496;-34
2023/01/03 13:50:35;;;;;;;6.80;3.47;;;10.80;99.90;;;;;;4588183;19;20772;-29
2023/01/03 13:52:07;;;;;;;4.57;2.57;;;10.70;99.90;;;;;;4587772;19;20772;-30
2023/01/03 13:53:57;;;;;;;5.27;2.50;;;10.60;99.90;;;;;;4587441;19;20803;-30
2023/01/03 13:55:48;;;;;;;8.33;4.43;;;10.50;99.90;;;;;;4587720;19;20449;-33
2023/01/03 13:57:52;;;;;;;7.13;3.60;;;10.50;99.90;;;;;;4587556;19;21057;-31
2023/01/03 14:00:02;;;;;;;5.30;3.23;;;10.50;99.90;;;;;;4587639;19;20425;-30
2023/01/03 14:02:07;;;;;;;6.47;3.70;;;10.50;99.90;;;;;;4586973;19;20453;-30
2023/01/03 14:04:16;;;;;;;8.30;4.20;;;10.50;99.90;;;;;;4587625;19;20455;-31
2023/01/03 14:05:53;;;;;;;6.30;3.00;;;10.50;99.90;;;;;;4587188;19;20417;-34
2023/01/03 14:07:44;;;;;;;7.27;3.00;;;10.50;99.90;;;;;;4588077;19;20473;-28
2023/01/03 14:10:09;;;;;;;6.72;3.33;;;10.50;99.90;;;;;;4589925;19;20456;-31
2023/01/03 14:12:11;;;;;;;5.57;2.80;;;10.40;99.90;;;;;;4611981;19;20684;-32
2023/01/03 14:13:50;;;;;;;7.30;3.70;;;10.40;99.90;;;;;;4613929;19;20776;-30
2023/01/03 14:15:23;;;;;;;5.70;3.57;;;10.40;99.90;;;;;;4613597;19;20437;-32
2023/01/03 14:16:56;;;;;;;6.80;2.90;;;10.40;99.90;;;;;;4614121;19;20440;-33
2023/01/03 14:18:28;;;;;;;4.80;2.83;;;10.40;99.90;;;;;;4613271;19;20470;-28
2023/01/03 14:20:03;;;;;;;6.78;3.70;;;10.40;99.90;;;;;;4613908;19;20460;-29
2023/01/03 14:21:49;;;;;;;5.93;3.20;;;10.40;99.90;;;;;;4613380;19;20056;-27
2023/01/03 14:23:23;;;;;;;7.53;4.17;;;10.30;99.90;;;;;;4612354;19;20420;-27
2023/01/03 14:24:56;;;;;;;5.77;3.10;;;10.40;99.90;;;;;;4611305;19;20437;-27
2023/01/03 14:36:19;;;;;;;6.93;3.83;;;10.40;99.90;;;;;;4612205;19;20464;-27
2023/01/03 14:37:51;;;;;;;9.83;5.17;;;10.30;99.90;;;;;;4609893;19;20436;-27
2023/01/03 14:39:31;;;;;;;8.17;3.53;;;10.30;99.90;;;;;;4609582;19;20539;-29
2023/01/03 14:41:03;;;;;;;8.97;4.43;;;10.30;99.90;;;;;;4609611;19;21036;-26
2023/01/03 14:42:34;;;;;;;8.13;3.60;;;10.30;99.90;;;;;;4609840;19;20515;-27
2023/01/03 14:44:16;;;;;;;6.10;4.00;;;10.30;99.90;;;;;;4609870;19;20030;-27